createdAt,value
2017-10-28T00:00:40.953Z,9.80
2017-10-28T00:03:08.545Z,9.50
2017-10-28T00:05:36.440Z,9.40
2017-10-28T00:08:04.025Z,9.10
2017-10-28T00:10:31.613Z,9.27
2017-10-28T00:12:59.219Z,9.17
2017-10-28T00:15:26.810Z,9.50
2017-10-28T00:17:55.171Z,8.87
2017-10-28T00:20:22.764Z,9.23
2017-10-28T00:22:50.360Z,9.27
2017-10-28T00:25:17.977Z,9.40
2017-10-28T00:27:45.562Z,9.60
2017-10-28T00:30:18.879Z,9.80
2017-10-28T00:32:52.414Z,9.53
2017-10-28T00:35:25.717Z,10.00
2017-10-28T00:37:53.299Z,9.97
2017-10-28T00:40:20.897Z,8.90
2017-10-28T00:42:48.496Z,9.10
2017-10-28T00:45:16.134Z,9.80
2017-10-28T00:47:43.760Z,9.33
2017-10-28T00:50:11.356Z,9.10
2017-10-28T00:52:38.932Z,8.90
2017-10-28T00:55:07.008Z,9.20
2017-10-28T00:57:34.608Z,9.10
2017-10-28T01:00:02.230Z,9.20
2017-10-28T01:02:29.846Z,8.80
2017-10-28T01:04:57.448Z,9.57
2017-10-28T01:07:25.061Z,9.63
2017-10-28T01:09:52.646Z,8.80
2017-10-28T01:12:20.286Z,8.70
2017-10-28T01:14:47.884Z,9.50
2017-10-28T01:17:15.489Z,9.13
2017-10-28T01:19:43.437Z,9.50
2017-10-28T01:22:11.046Z,8.93
2017-10-28T01:24:38.684Z,8.80
2017-10-28T01:27:06.287Z,8.50
2017-10-28T01:29:34.299Z,9.27
2017-10-28T01:32:01.911Z,9.30
2017-10-28T01:34:29.499Z,9.73
2017-10-28T01:36:57.130Z,9.57
2017-10-28T01:39:24.725Z,9.93
2017-10-28T01:41:52.330Z,9.30
2017-10-28T01:44:19.949Z,8.97
2017-10-28T01:46:47.528Z,9.70
2017-10-28T01:49:15.424Z,9.10
2017-10-28T01:51:43.014Z,9.73
2017-10-28T01:54:10.631Z,9.17
2017-10-28T01:56:38.737Z,9.43
2017-10-28T01:59:06.322Z,8.83
2017-10-28T02:01:33.950Z,9.27
2017-10-28T02:04:01.548Z,9.30
2017-10-28T02:06:29.174Z,9.90
2017-10-28T02:08:56.798Z,8.53
2017-10-28T02:11:24.387Z,9.03
2017-10-28T02:13:52.033Z,8.90
2017-10-28T02:16:19.685Z,9.20
2017-10-28T02:18:47.560Z,9.10
2017-10-28T02:21:15.531Z,8.97
2017-10-28T02:23:43.396Z,9.33
2017-10-28T02:26:11.026Z,9.20
2017-10-28T02:28:38.926Z,9.30
2017-10-28T02:31:06.508Z,9.03
2017-10-28T02:33:34.132Z,9.40
2017-10-28T02:36:01.740Z,9.50
2017-10-28T02:38:29.356Z,9.30
2017-10-28T02:40:56.969Z,9.53
2017-10-28T02:43:24.803Z,9.70
2017-10-28T02:45:52.458Z,9.20
2017-10-28T02:48:20.053Z,9.63
2017-10-28T02:50:47.690Z,9.57
2017-10-28T02:53:15.269Z,9.40
2017-10-28T02:55:42.878Z,9.07
2017-10-28T02:58:10.490Z,9.40
2017-10-28T03:00:38.446Z,9.60
2017-10-28T03:03:06.064Z,9.33
2017-10-28T03:05:33.694Z,9.00
2017-10-28T03:08:01.284Z,9.10
2017-10-28T03:10:28.898Z,9.50
2017-10-28T03:12:56.482Z,9.10
2017-10-28T03:15:24.065Z,8.90
2017-10-28T03:17:51.678Z,9.80
2017-10-28T03:20:19.261Z,9.90
2017-10-28T03:22:47.076Z,9.50
2017-10-28T03:25:14.701Z,10.10
2017-10-28T03:27:42.297Z,10.07
2017-10-28T03:30:09.899Z,10.23
2017-10-28T03:32:37.866Z,10.50
2017-10-28T03:35:05.464Z,10.73
2017-10-28T03:37:33.083Z,9.70
2017-10-28T03:40:00.668Z,10.73
2017-10-28T03:42:28.264Z,11.23
2017-10-28T03:44:55.877Z,10.57
2017-10-28T03:47:23.453Z,10.67
2017-10-28T03:49:51.146Z,10.90
2017-10-28T03:52:18.739Z,11.33
2017-10-28T03:54:46.337Z,10.20
2017-10-28T03:57:14.287Z,11.00
2017-10-28T03:59:41.954Z,11.10
2017-10-28T04:02:09.579Z,10.10
2017-10-28T04:04:37.184Z,10.47
2017-10-28T04:07:04.756Z,10.30
2017-10-28T04:09:32.377Z,10.60
2017-10-28T04:12:00.032Z,10.27
2017-10-28T04:14:27.935Z,11.50
2017-10-28T04:16:55.525Z,10.10
2017-10-28T04:19:23.116Z,10.60
2017-10-28T04:21:50.724Z,10.87
2017-10-28T04:24:18.344Z,10.50
2017-10-28T04:26:46.245Z,10.10
2017-10-28T04:29:13.833Z,10.00
2017-10-28T04:31:41.421Z,10.10
2017-10-28T04:34:09.038Z,10.20
2017-10-28T04:36:36.628Z,10.23
2017-10-28T04:39:04.569Z,10.17
2017-10-28T04:41:32.162Z,10.07
2017-10-28T04:43:59.745Z,10.33
2017-10-28T04:46:27.404Z,10.00
2017-10-28T04:48:55.311Z,9.50
2017-10-28T04:51:22.928Z,9.70
2017-10-28T04:53:50.508Z,9.47
2017-10-28T04:56:18.107Z,9.53
2017-10-28T04:58:46.076Z,10.13
2017-10-28T05:01:13.657Z,9.73
2017-10-28T05:03:41.281Z,9.20
2017-10-28T05:06:08.869Z,9.37
2017-10-28T05:08:36.450Z,8.90
2017-10-28T05:11:04.081Z,8.67
2017-10-28T05:13:31.659Z,8.77
2017-10-28T05:15:59.298Z,8.70
2017-10-28T05:18:26.881Z,9.00
2017-10-28T05:20:54.478Z,9.03
2017-10-28T05:23:22.113Z,8.87
2017-10-28T05:25:49.716Z,8.80
2017-10-28T05:28:17.346Z,9.10
2017-10-28T05:30:44.925Z,8.80
2017-10-28T05:33:12.520Z,9.13
2017-10-28T05:35:40.404Z,8.70
2017-10-28T05:38:07.990Z,9.20
2017-10-28T05:40:35.611Z,8.73
2017-10-28T05:43:03.193Z,8.73
2017-10-28T05:45:30.789Z,9.70
2017-10-28T05:47:58.716Z,9.00
2017-10-28T05:50:26.368Z,8.70
2017-10-28T05:52:54.162Z,8.63
2017-10-28T05:55:21.754Z,8.47
2017-10-28T05:57:49.351Z,8.60
2017-10-28T06:00:16.973Z,8.40
2017-10-28T06:02:44.617Z,8.50
2017-10-28T06:05:12.237Z,8.60
2017-10-28T06:07:39.833Z,8.70
2017-10-28T06:10:07.890Z,9.77
2017-10-28T06:12:35.860Z,8.73
2017-10-28T06:15:03.453Z,8.20
2017-10-28T06:17:31.069Z,9.00
2017-10-28T06:19:58.954Z,10.43
2017-10-28T06:22:26.528Z,9.33
2017-10-28T06:24:54.161Z,8.87
2017-10-28T06:27:21.749Z,9.60
2017-10-28T06:29:49.373Z,9.07
2017-10-28T06:32:16.974Z,9.03
2017-10-28T06:34:44.563Z,9.17
2017-10-28T06:37:12.189Z,8.93
2017-10-28T06:39:40.054Z,8.93
2017-10-28T06:42:07.685Z,9.27
2017-10-28T06:44:35.270Z,9.80
2017-10-28T06:47:02.864Z,9.30
2017-10-28T06:49:30.731Z,9.30
2017-10-28T06:51:58.593Z,9.20
2017-10-28T06:54:26.221Z,9.30
2017-10-28T06:56:53.806Z,9.63
2017-10-28T06:59:21.403Z,8.40
2017-10-28T07:01:49.038Z,8.90
2017-10-28T07:04:16.899Z,9.00
2017-10-28T07:06:44.517Z,9.07
2017-10-28T07:09:12.125Z,8.47
2017-10-28T07:11:39.993Z,8.80
2017-10-28T07:14:07.959Z,9.00
2017-10-28T07:16:35.565Z,9.50
2017-10-28T07:19:03.223Z,9.20
2017-10-28T07:21:30.816Z,9.00
2017-10-28T07:23:59.026Z,8.93
2017-10-28T07:26:26.643Z,9.20
2017-10-28T07:28:54.249Z,9.07
2017-10-28T07:31:21.895Z,9.77
2017-10-28T07:33:49.735Z,9.20
2017-10-28T07:36:17.334Z,9.40
2017-10-28T07:38:44.958Z,8.90
2017-10-28T07:41:12.552Z,9.30
2017-10-28T07:43:40.528Z,9.40
2017-10-28T07:46:08.119Z,9.27
2017-10-28T07:48:35.702Z,9.07
2017-10-28T07:51:03.324Z,9.77
2017-10-28T07:53:30.922Z,9.40
2017-10-28T07:55:58.850Z,9.30
2017-10-28T07:58:26.441Z,9.00
2017-10-28T08:00:54.876Z,9.57
2017-10-28T08:03:22.490Z,9.40
2017-10-28T08:05:50.082Z,9.20
2017-10-28T08:08:17.736Z,9.30
2017-10-28T08:10:45.326Z,10.00
2017-10-28T08:13:13.044Z,9.90
2017-10-28T08:15:40.671Z,10.53
2017-10-28T08:18:08.309Z,9.57
2017-10-28T08:20:35.962Z,9.90
2017-10-28T08:23:03.584Z,10.57
2017-10-28T08:25:31.200Z,9.70
2017-10-28T08:27:58.856Z,9.67
2017-10-28T08:30:26.518Z,10.20
2017-10-28T08:32:54.225Z,9.80
2017-10-28T08:35:21.830Z,9.90
2017-10-28T08:37:49.433Z,9.40
2017-10-28T08:40:17.068Z,10.07
2017-10-28T08:42:44.675Z,9.70
2017-10-28T08:45:12.318Z,10.37
2017-10-28T08:47:39.958Z,10.10
2017-10-28T08:50:07.549Z,10.40
2017-10-28T08:52:35.501Z,9.57
2017-10-28T08:55:03.101Z,10.40
2017-10-28T08:57:30.730Z,9.63
2017-10-28T08:59:58.363Z,10.10
2017-10-28T09:02:25.960Z,10.67
2017-10-28T09:04:53.577Z,10.30
2017-10-28T09:07:21.161Z,9.97
2017-10-28T09:09:49.142Z,9.97
2017-10-28T09:12:17.009Z,10.10
2017-10-28T09:14:44.609Z,10.20
2017-10-28T09:17:12.231Z,9.70
2017-10-28T09:19:39.836Z,10.20
2017-10-28T09:22:07.512Z,9.27
2017-10-28T09:24:35.433Z,9.90
2017-10-28T09:27:03.041Z,10.10
2017-10-28T09:29:30.677Z,10.03
2017-10-28T09:31:58.297Z,9.30
2017-10-28T09:34:25.946Z,10.30
2017-10-28T09:36:53.569Z,10.53
2017-10-28T09:39:21.188Z,9.57
2017-10-28T09:41:49.175Z,9.80
2017-10-28T09:44:16.763Z,9.90
2017-10-28T09:46:44.495Z,9.67
2017-10-28T09:49:12.470Z,9.50
2017-10-28T09:51:40.338Z,9.73
2017-10-28T09:54:07.977Z,9.57
2017-10-28T09:56:35.569Z,10.83
2017-10-28T09:59:03.545Z,10.30
2017-10-28T10:01:31.151Z,12.10
2017-10-28T10:03:58.751Z,9.90
2017-10-28T10:06:26.735Z,9.90
2017-10-28T10:08:54.311Z,9.63
2017-10-28T10:11:21.968Z,10.03
2017-10-28T10:13:49.922Z,10.17
2017-10-28T10:16:17.513Z,10.27
2017-10-28T10:18:45.142Z,9.77
2017-10-28T10:21:12.773Z,10.33
2017-10-28T10:23:40.399Z,9.83
2017-10-28T10:26:08.346Z,10.13
2017-10-28T10:28:35.949Z,9.67
2017-10-28T10:31:03.672Z,10.00
2017-10-28T10:33:31.277Z,9.90
2017-10-28T10:35:58.897Z,9.93
2017-10-28T10:38:26.561Z,10.03
2017-10-28T10:40:54.143Z,9.70
2017-10-28T10:43:21.731Z,10.37
2017-10-28T10:45:49.365Z,9.40
2017-10-28T10:48:16.993Z,10.07
2017-10-28T10:50:45.474Z,10.43
2017-10-28T10:53:13.101Z,10.47
2017-10-28T10:55:40.692Z,10.33
2017-10-28T10:58:08.674Z,9.70
2017-10-28T11:00:36.265Z,10.40
2017-10-28T11:03:04.361Z,9.80
2017-10-28T11:05:32.021Z,10.30
2017-10-28T11:07:59.606Z,9.73
2017-10-28T11:10:27.248Z,9.70
2017-10-28T11:12:54.882Z,9.90
2017-10-28T11:15:22.854Z,9.77
2017-10-28T11:17:50.448Z,10.40
2017-10-28T11:20:18.400Z,9.90
2017-10-28T11:22:46.017Z,11.07
2017-10-28T11:25:13.613Z,9.97
2017-10-28T11:27:41.257Z,10.13
2017-10-28T11:30:08.861Z,11.50
2017-10-28T11:32:36.473Z,9.93
2017-10-28T11:35:04.105Z,10.50
2017-10-28T11:37:31.700Z,11.10
2017-10-28T11:39:59.362Z,12.13
2017-10-28T11:42:26.962Z,10.50
2017-10-28T11:44:54.597Z,10.37
2017-10-28T11:47:22.560Z,10.23
2017-10-28T11:49:50.221Z,9.70
2017-10-28T11:52:17.863Z,9.80
2017-10-28T11:54:45.469Z,9.90
2017-10-28T11:57:13.096Z,9.33
2017-10-28T11:59:40.723Z,9.90
2017-10-28T12:02:08.330Z,10.40
2017-10-28T12:04:35.992Z,10.77
2017-10-28T12:07:03.595Z,10.10
2017-10-28T12:09:31.213Z,9.70
2017-10-28T12:11:58.886Z,10.37
2017-10-28T12:14:26.514Z,9.67
2017-10-28T12:16:54.242Z,9.67
2017-10-28T12:19:21.912Z,10.30
2017-10-28T12:21:49.517Z,10.27
2017-10-28T12:24:17.215Z,9.77
2017-10-28T12:26:44.937Z,9.97
2017-10-28T12:29:12.675Z,9.40
2017-10-28T12:31:40.368Z,9.97
2017-10-28T12:34:08.014Z,10.07
2017-10-28T12:36:35.648Z,10.00
2017-10-28T12:39:03.243Z,9.40
2017-10-28T12:41:31.138Z,10.20
2017-10-28T12:43:58.755Z,10.17
2017-10-28T12:46:26.368Z,9.80
2017-10-28T12:48:54.248Z,9.93
2017-10-28T12:51:21.845Z,10.47
2017-10-28T12:53:49.644Z,10.60
2017-10-28T12:56:17.242Z,9.77
2017-10-28T12:58:44.833Z,10.10
2017-10-28T13:01:12.465Z,9.93
2017-10-28T13:03:40.050Z,9.63
2017-10-28T13:06:07.794Z,10.10
2017-10-28T13:08:35.395Z,9.57
2017-10-28T13:11:03.322Z,9.60
2017-10-28T13:13:31.249Z,9.77
2017-10-28T13:15:58.841Z,9.20
2017-10-28T13:18:26.519Z,9.37
2017-10-28T13:20:54.119Z,10.00
2017-10-28T13:23:21.722Z,10.60
2017-10-28T13:25:49.354Z,9.80
2017-10-28T13:28:17.000Z,9.50
2017-10-28T13:30:44.672Z,10.07
2017-10-28T13:33:12.279Z,9.23
2017-10-28T13:35:39.879Z,9.90
2017-10-28T13:38:07.509Z,9.70
2017-10-28T13:40:35.110Z,10.33
2017-10-28T13:43:02.753Z,10.40
2017-10-28T13:45:30.343Z,9.87
2017-10-28T13:47:57.986Z,11.03
2017-10-28T13:50:26.001Z,10.67
2017-10-28T13:52:53.594Z,9.70
2017-10-28T13:55:21.229Z,9.63
2017-10-28T13:57:48.839Z,9.83
2017-10-28T14:00:16.770Z,10.30
2017-10-28T14:02:44.446Z,11.20
2017-10-28T14:05:12.084Z,10.57
2017-10-28T14:07:39.738Z,10.50
2017-10-28T14:10:07.401Z,10.20
2017-10-28T14:12:35.022Z,9.80
2017-10-28T14:15:02.678Z,9.53
2017-10-28T14:17:30.288Z,9.73
2017-10-28T14:19:57.917Z,9.70
2017-10-28T14:22:25.509Z,10.13
2017-10-28T14:24:53.109Z,9.90
2017-10-28T14:27:20.806Z,10.17
2017-10-28T14:29:48.421Z,9.80
2017-10-28T14:32:16.073Z,9.53
2017-10-28T14:34:43.751Z,9.77
2017-10-28T14:37:11.344Z,9.40
2017-10-28T14:39:38.986Z,10.03
2017-10-28T14:42:06.587Z,10.03
2017-10-28T14:44:34.221Z,10.83
2017-10-28T14:47:01.817Z,9.50
2017-10-28T14:49:29.412Z,9.40
2017-10-28T14:51:57.037Z,9.60
2017-10-28T14:54:24.645Z,10.03
2017-10-28T14:56:52.306Z,10.13
2017-10-28T14:59:19.910Z,9.70
2017-10-28T15:01:47.593Z,9.60
2017-10-28T15:04:15.496Z,10.13
2017-10-28T15:06:43.086Z,9.60
2017-10-28T15:09:10.729Z,10.20
2017-10-28T15:11:38.342Z,10.20
2017-10-28T15:14:05.978Z,10.80
2017-10-28T15:16:33.592Z,10.00
2017-10-28T15:19:01.203Z,10.10
2017-10-28T15:21:28.838Z,10.03
2017-10-28T15:23:56.441Z,10.00
2017-10-28T15:26:24.029Z,9.87
2017-10-28T15:28:51.654Z,9.57
2017-10-28T15:31:19.250Z,9.87
2017-10-28T15:33:46.868Z,10.00
2017-10-28T15:36:14.466Z,9.90
2017-10-28T15:38:42.183Z,10.20
2017-10-28T15:41:09.807Z,10.93
2017-10-28T15:43:37.417Z,10.50
2017-10-28T15:46:05.052Z,9.80
2017-10-28T15:48:32.688Z,10.17
2017-10-28T15:51:00.294Z,10.17
2017-10-28T15:53:27.948Z,9.67
2017-10-28T15:55:55.607Z,10.00
2017-10-28T15:58:24.161Z,9.87
2017-10-28T16:00:51.764Z,10.03
2017-10-28T16:03:19.345Z,10.60
2017-10-28T16:05:47.003Z,10.57
2017-10-28T16:08:14.681Z,9.77
2017-10-28T16:10:42.373Z,9.93
2017-10-28T16:13:10.043Z,10.13
2017-10-28T16:15:38.351Z,10.53
2017-10-28T16:18:06.115Z,9.53
2017-10-28T16:20:33.945Z,11.20
2017-10-28T16:23:01.729Z,10.13
2017-10-28T16:25:29.685Z,10.83
2017-10-28T16:27:57.372Z,10.60
2017-10-28T16:30:25.111Z,10.60
2017-10-28T16:32:52.836Z,11.00
2017-10-28T16:35:20.537Z,10.40
2017-10-28T16:37:48.170Z,9.50
2017-10-28T16:40:15.846Z,10.20
2017-10-28T16:42:43.528Z,10.30
2017-10-28T16:45:11.486Z,11.27
2017-10-28T16:47:39.322Z,10.77
2017-10-28T16:50:07.115Z,10.50
2017-10-28T16:52:34.877Z,10.73
2017-10-28T16:55:02.522Z,9.50
2017-10-28T16:57:30.194Z,10.03
2017-10-28T16:59:57.904Z,10.73
2017-10-28T17:02:25.570Z,11.27
2017-10-28T17:04:53.180Z,10.47
2017-10-28T17:07:21.184Z,10.37
2017-10-28T17:09:49.011Z,10.23
2017-10-28T17:12:16.654Z,10.50
2017-10-28T17:14:44.404Z,10.40
2017-10-28T17:17:11.993Z,9.90
2017-10-28T17:19:39.617Z,10.43
2017-10-28T17:22:07.318Z,9.50
2017-10-28T17:24:34.932Z,11.43
2017-10-28T17:27:02.529Z,10.70
2017-10-28T17:29:30.161Z,10.57
2017-10-28T17:31:57.769Z,10.23
2017-10-28T17:34:25.381Z,10.00
2017-10-28T17:36:53.034Z,10.67
2017-10-28T17:39:20.951Z,11.70
2017-10-28T17:41:48.585Z,10.90
2017-10-28T17:44:17.109Z,11.70
2017-10-28T17:46:44.848Z,10.47
2017-10-28T17:49:12.491Z,11.00
2017-10-28T17:51:40.129Z,10.60
2017-10-28T17:54:07.785Z,10.57
2017-10-28T17:56:35.397Z,10.73
2017-10-28T17:59:02.997Z,10.30
2017-10-28T18:01:30.629Z,10.67
2017-10-28T18:03:58.232Z,9.87
2017-10-28T18:06:25.876Z,10.70
2017-10-28T18:08:53.506Z,10.43
2017-10-28T18:11:21.155Z,10.60
2017-10-28T18:13:48.779Z,10.83
2017-10-28T18:16:16.379Z,11.20
2017-10-28T18:18:44.151Z,9.93
2017-10-28T18:21:11.779Z,10.53
2017-10-28T18:23:39.692Z,11.50
2017-10-28T18:26:07.371Z,10.03
2017-10-28T18:28:34.974Z,10.80
2017-10-28T18:31:02.646Z,10.40
2017-10-28T18:33:30.547Z,10.70
2017-10-28T18:35:58.166Z,10.67
2017-10-28T18:38:26.087Z,10.97
2017-10-28T18:40:53.696Z,11.33
2017-10-28T18:43:21.329Z,10.50
2017-10-28T18:45:48.937Z,11.00
2017-10-28T18:48:16.542Z,11.63
2017-10-28T18:50:44.192Z,10.67
2017-10-28T18:53:11.776Z,11.20
2017-10-28T18:55:39.435Z,12.00
2017-10-28T18:58:07.387Z,11.27
2017-10-28T19:00:35.352Z,11.67
2017-10-28T19:03:02.976Z,11.03
2017-10-28T19:05:30.582Z,11.83
2017-10-28T19:07:58.209Z,13.30
2017-10-28T19:10:26.059Z,11.77
2017-10-28T19:12:53.664Z,11.80
2017-10-28T19:15:21.308Z,11.30
2017-10-28T19:17:48.911Z,12.10
2017-10-28T19:20:16.541Z,12.33
2017-10-28T19:22:44.436Z,11.80
2017-10-28T19:25:12.037Z,11.60
2017-10-28T19:27:39.660Z,11.67
2017-10-28T19:30:07.265Z,11.50
2017-10-28T19:32:34.912Z,12.40
2017-10-28T19:35:02.506Z,11.50
2017-10-28T19:37:30.117Z,11.70
2017-10-28T19:39:57.734Z,12.50
2017-10-28T19:42:25.324Z,12.53
2017-10-28T19:44:52.976Z,12.23
2017-10-28T19:47:20.575Z,11.70
2017-10-28T19:49:48.257Z,12.63
2017-10-28T19:52:15.856Z,12.73
2017-10-28T19:54:43.442Z,14.13
2017-10-28T19:57:11.080Z,14.10
2017-10-28T19:59:38.721Z,14.20
2017-10-28T20:02:06.305Z,14.33
2017-10-28T20:04:33.932Z,14.57
2017-10-28T20:07:01.515Z,15.73
2017-10-28T20:09:29.139Z,15.20
2017-10-28T20:11:56.771Z,14.97
2017-10-28T20:14:24.421Z,15.00
2017-10-28T20:16:52.086Z,15.57
2017-10-28T20:19:19.673Z,15.77
2017-10-28T20:21:47.297Z,15.30
2017-10-28T20:24:14.889Z,15.47
2017-10-28T20:26:42.483Z,16.10
2017-10-28T20:29:10.124Z,15.47
2017-10-28T20:31:37.868Z,15.87
2017-10-28T20:34:05.721Z,15.70
2017-10-28T20:36:33.297Z,15.30
2017-10-28T20:39:00.894Z,16.10
2017-10-28T20:41:28.687Z,15.57
2017-10-28T20:43:56.296Z,14.73
2017-10-28T20:46:24.249Z,15.17
2017-10-28T20:48:51.841Z,15.27
2017-10-28T20:51:19.445Z,14.83
2017-10-28T20:53:48.018Z,16.33
2017-10-28T20:56:15.654Z,14.50
2017-10-28T20:58:43.294Z,15.27
2017-10-28T21:01:10.888Z,15.20
2017-10-28T21:03:38.510Z,16.10
2017-10-28T21:06:06.395Z,15.30
2017-10-28T21:08:33.991Z,15.50
2017-10-28T21:11:01.638Z,16.17
2017-10-28T21:13:29.313Z,17.30
2017-10-28T21:15:57.202Z,18.10
2017-10-28T21:18:24.902Z,18.93
2017-10-28T21:20:52.503Z,18.40
2017-10-28T21:23:20.169Z,19.10
2017-10-28T21:25:48.103Z,19.67
2017-10-28T21:28:15.680Z,20.57
2017-10-28T21:30:43.305Z,21.00
2017-10-28T21:33:10.946Z,21.90
2017-10-28T21:35:38.581Z,23.13
2017-10-28T21:38:06.245Z,22.40
2017-10-28T21:40:33.845Z,24.13
2017-10-28T21:43:01.843Z,24.47
2017-10-28T21:45:29.477Z,23.60
2017-10-28T21:47:57.153Z,24.33
2017-10-28T21:50:24.736Z,24.47
2017-10-28T21:52:52.336Z,25.70
2017-10-28T21:55:19.979Z,26.30
2017-10-28T21:57:47.567Z,26.87
2017-10-28T22:00:15.188Z,24.53
2017-10-28T22:02:42.866Z,25.63
2017-10-28T22:05:10.489Z,24.27
2017-10-28T22:07:38.576Z,25.53
2017-10-28T22:10:06.188Z,24.70
2017-10-28T22:12:33.825Z,24.03
2017-10-28T22:15:01.464Z,25.43
2017-10-28T22:17:29.122Z,22.27
2017-10-28T22:19:56.985Z,24.40
2017-10-28T22:22:24.678Z,22.13
2017-10-28T22:24:52.338Z,21.50
2017-10-28T22:27:20.305Z,21.50
2017-10-28T22:29:48.325Z,19.43
2017-10-28T22:32:16.326Z,19.47
2017-10-28T22:34:43.916Z,19.40
2017-10-28T22:37:11.737Z,20.33
2017-10-28T22:39:39.383Z,19.70
2017-10-28T22:42:07.019Z,19.40
2017-10-28T22:44:34.681Z,18.50
2017-10-28T22:47:02.328Z,17.97
2017-10-28T22:49:30.276Z,18.27
2017-10-28T22:51:57.976Z,18.10
2017-10-28T22:54:25.635Z,17.33
2017-10-28T22:56:53.326Z,16.20
2017-10-28T22:59:20.953Z,16.20
2017-10-28T23:01:48.600Z,15.80
2017-10-28T23:04:16.192Z,15.33
2017-10-28T23:06:43.829Z,16.30
2017-10-28T23:09:11.444Z,15.37
2017-10-28T23:11:39.048Z,15.00
2017-10-28T23:14:06.720Z,14.30
2017-10-28T23:16:34.307Z,13.67
2017-10-28T23:19:01.902Z,13.63
2017-10-28T23:21:29.519Z,13.70
2017-10-28T23:23:57.119Z,13.27
2017-10-28T23:26:25.020Z,13.50
2017-10-28T23:28:52.625Z,13.00
2017-10-28T23:31:20.239Z,12.90
2017-10-28T23:33:48.228Z,12.50
2017-10-28T23:36:15.847Z,12.37
2017-10-28T23:38:43.475Z,12.60
2017-10-28T23:41:11.401Z,13.13
2017-10-28T23:43:38.996Z,12.97
2017-10-28T23:46:06.620Z,12.07
2017-10-28T23:48:34.500Z,12.93
2017-10-28T23:51:02.237Z,12.40
2017-10-28T23:53:29.824Z,12.13
2017-10-28T23:55:57.423Z,11.60
2017-10-28T23:58:25.037Z,11.43
